地図

経路データ

SID SEASON NUMBER BASIN SUBBASIN NAME ISO_TIME NATURE LAT LON WMO_WIND WMO_PRES WMO_AGENCY TRACK_TYPE DIST2LAND LANDFALL IFLAG USA_AGENCY USA_ATCF_ID USA_LAT USA_LON USA_RECORD USA_STATUS USA_WIND USA_PRES USA_SSHS USA_R34_NE USA_R34_SE USA_R34_SW USA_R34_NW USA_R50_NE USA_R50_SE USA_R50_SW USA_R50_NW USA_R64_NE USA_R64_SE USA_R64_SW USA_R64_NW USA_POCI USA_ROCI USA_RMW USA_EYE TOKYO_LAT TOKYO_LON TOKYO_GRADE TOKYO_WIND TOKYO_PRES TOKYO_R50_DIR TOKYO_R50_LONG TOKYO_R50_SHORT TOKYO_R30_DIR TOKYO_R30_LONG TOKYO_R30_SHORT TOKYO_LAND CMA_LAT CMA_LON CMA_CAT CMA_WIND CMA_PRES HKO_LAT HKO_LON HKO_CAT HKO_WIND HKO_PRES NEWDELHI_LAT NEWDELHI_LON NEWDELHI_GRADE NEWDELHI_WIND NEWDELHI_PRES NEWDELHI_CI NEWDELHI_DP NEWDELHI_POCI REUNION_LAT REUNION_LON REUNION_TYPE REUNION_WIND REUNION_PRES REUNION_TNUM REUNION_CI REUNION_RMW REUNION_R34_NE REUNION_R34_SE REUNION_R34_SW REUNION_R34_NW REUNION_R50_NE REUNION_R50_SE REUNION_R50_SW REUNION_R50_NW REUNION_R64_NE REUNION_R64_SE REUNION_R64_SW REUNION_R64_NW BOM_LAT BOM_LON BOM_TYPE BOM_WIND BOM_PRES BOM_TNUM BOM_CI BOM_RMW BOM_R34_NE BOM_R34_SE BOM_R34_SW BOM_R34_NW BOM_R50_NE BOM_R50_SE BOM_R50_SW BOM_R50_NW BOM_R64_NE BOM_R64_SE BOM_R64_SW BOM_R64_NW BOM_ROCI BOM_POCI BOM_EYE BOM_POS_METHOD BOM_PRES_METHOD NADI_LAT NADI_LON NADI_CAT NADI_WIND NADI_PRES WELLINGTON_LAT WELLINGTON_LON WELLINGTON_WIND WELLINGTON_PRES DS824_LAT DS824_LON DS824_STAGE DS824_WIND DS824_PRES TD9636_LAT TD9636_LON TD9636_STAGE TD9636_WIND TD9636_PRES TD9635_LAT TD9635_LON TD9635_WIND TD9635_PRES TD9635_ROCI NEUMANN_LAT NEUMANN_LON NEUMANN_CLASS NEUMANN_WIND NEUMANN_PRES MLC_LAT MLC_LON MLC_CLASS MLC_WIND MLC_PRES USA_GUST BOM_GUST BOM_GUST_PER REUNION_GUST REUNION_GUST_PER USA_SEAHGT USA_SEARAD_NE USA_SEARAD_SE USA_SEARAD_SW USA_SEARAD_NW STORM_SPEED STORM_DIR
1990270N13261 1990 93 EP MM RACHEL 1990-09-27 00:00:00 TS 13.5000 -99.3000 25 1010 hurdat_epa main 322 322 O_____________ hurdat_epa EP211990 13.5000 -99.3000 TD 25 1010 -1 4 204
1990270N13261 1990 93 EP MM RACHEL 1990-09-27 03:00:00 TS 13.3025 -99.3900 main 346 346 P_____________ EP211990 13.3025 -99.3900 TD 25 1010 -1 4 206
1990270N13261 1990 93 EP MM RACHEL 1990-09-27 06:00:00 TS 13.1000 -99.5000 25 1010 hurdat_epa main 371 371 O_____________ hurdat_epa EP211990 13.1000 -99.5000 TD 25 1010 -1 5 211
1990270N13261 1990 93 EP MM RACHEL 1990-09-27 09:00:00 TS 12.8925 -99.6425 main 395 395 P_____________ EP211990 12.8925 -99.6425 TD 25 1010 -1 5 216
1990270N13261 1990 93 EP MM RACHEL 1990-09-27 12:00:00 TS 12.7000 -99.8000 25 1010 hurdat_epa main 423 423 O_____________ hurdat_epa EP211990 12.7000 -99.8000 TD 25 1010 -1 5 220
1990270N13261 1990 93 EP MM RACHEL 1990-09-27 15:00:00 TS 12.5425 -99.9425 main 447 447 P_____________ EP211990 12.5425 -99.9425 TD 25 1010 -1 4 224
1990270N13261 1990 93 EP MM RACHEL 1990-09-27 18:00:00 TS 12.4000 -100.100 25 1010 hurdat_epa main 465 465 O_____________ hurdat_epa EP211990 12.4000 -100.100 TD 25 1010 -1 5 227
1990270N13261 1990 93 EP MM RACHEL 1990-09-27 21:00:00 TS 12.2350 -100.278 main 494 494 P_____________ EP211990 12.2350 -100.278 TD 25 1009 -1 5 232
1990270N13261 1990 93 EP MM RACHEL 1990-09-28 00:00:00 TS 12.1000 -100.500 25 1009 hurdat_epa main 512 512 O_____________ hurdat_epa EP211990 12.1000 -100.500 TD 25 1009 -1 5 247
1990270N13261 1990 93 EP MM RACHEL 1990-09-28 03:00:00 TS 12.0275 -100.777 main 536 536 P_____________ EP211990 12.0275 -100.777 TD 25 1009 -1 6 260
1990270N13261 1990 93 EP MM RACHEL 1990-09-28 06:00:00 TS 12.0000 -101.100 25 1009 hurdat_epa main 547 547 O_____________ hurdat_epa EP211990 12.0000 -101.100 TD 25 1009 -1 6 265
1990270N13261 1990 93 EP MM RACHEL 1990-09-28 09:00:00 TS 11.9774 -101.428 main 557 557 P_____________ EP211990 11.9774 -101.428 TD 25 1009 -1 7 270
1990270N13261 1990 93 EP MM RACHEL 1990-09-28 12:00:00 TS 12.0000 -101.800 25 1009 hurdat_epa main 572 572 O_____________ hurdat_epa EP211990 12.0000 -101.800 TD 25 1009 -1 8 278
1990270N13261 1990 93 EP MM RACHEL 1990-09-28 15:00:00 TS 12.0850 -102.227 main 581 581 P_____________ EP211990 12.0850 -102.227 TD 27 1009 -1 9 283
1990270N13261 1990 93 EP MM RACHEL 1990-09-28 18:00:00 TS 12.2000 -102.700 30 1009 hurdat_epa main 595 595 O_____________ hurdat_epa EP211990 12.2000 -102.700 TD 30 1009 -1 10 282
1990270N13261 1990 93 EP MM RACHEL 1990-09-28 21:00:00 TS 12.2924 -103.185 main 603 603 P_____________ EP211990 12.2924 -103.185 TD 30 1008 -1 10 282
1990270N13261 1990 93 EP MM RACHEL 1990-09-29 00:00:00 TS 12.4000 -103.700 30 1008 hurdat_epa main 615 615 O_____________ hurdat_epa EP211990 12.4000 -103.700 TD 30 1008 -1 11 283
1990270N13261 1990 93 EP MM RACHEL 1990-09-29 03:00:00 TS 12.5275 -104.250 main 637 628 P_____________ EP211990 12.5275 -104.250 TD 30 1008 -1 11 286
1990270N13261 1990 93 EP MM RACHEL 1990-09-29 06:00:00 TS 12.7000 -104.800 30 1008 hurdat_epa main 637 630 O_____________ hurdat_epa EP211990 12.7000 -104.800 TD 30 1008 -1 11 291
1990270N13261 1990 93 EP MM RACHEL 1990-09-29 09:00:00 TS 12.9349 -105.322 main 634 617 P_____________ EP211990 12.9349 -105.322 TD 30 1008 -1 11 297
1990270N13261 1990 93 EP MM RACHEL 1990-09-29 12:00:00 TS 13.2000 -105.800 30 1008 hurdat_epa main 621 614 O_____________ hurdat_epa EP211990 13.2000 -105.800 TD 30 1008 -1 10 301
1990270N13261 1990 93 EP MM RACHEL 1990-09-29 15:00:00 TS 13.4422 -106.185 main 619 606 P_____________ EP211990 13.4422 -106.185 TD 30 1007 -1 9 303
1990270N13261 1990 93 EP MM RACHEL 1990-09-29 18:00:00 TS 13.7000 -106.600 30 1007 hurdat_epa main 612 608 O_____________ hurdat_epa EP211990 13.7000 -106.600 TD 30 1007 -1 11 301
1990270N13261 1990 93 EP MM RACHEL 1990-09-29 21:00:00 TS 13.9999 -107.148 main 616 614 P_____________ EP211990 13.9999 -107.148 TD 30 1006 -1 13 297
1990270N13261 1990 93 EP MM RACHEL 1990-09-30 00:00:00 TS 14.3000 -107.800 30 1006 hurdat_epa main 634 634 O_____________ hurdat_epa EP211990 14.3000 -107.800 TD 30 1006 -1 15 292
1990270N13261 1990 93 EP MM RACHEL 1990-09-30 03:00:00 TS 14.5500 -108.535 main 648 648 P_____________ EP211990 14.5500 -108.535 TD 32 1005 -1 15 289
1990270N13261 1990 93 EP MM RACHEL 1990-09-30 06:00:00 TS 14.8000 -109.300 35 1005 hurdat_epa main 686 686 O_____________ hurdat_epa EP211990 14.8000 -109.300 TS 35 1005 0 15 290
1990270N13261 1990 93 EP MM RACHEL 1990-09-30 09:00:00 TS 15.0849 -110.030 main 716 716 P_____________ EP211990 15.0849 -110.030 TS 37 1004 0 15 294
1990270N13261 1990 93 EP MM RACHEL 1990-09-30 12:00:00 TS 15.4000 -110.700 40 1004 hurdat_epa main 747 747 O_____________ hurdat_epa EP211990 15.4000 -110.700 TS 40 1004 0 14 298
1990270N13261 1990 93 EP MM RACHEL 1990-09-30 15:00:00 TS 15.7349 -111.310 main 777 770 P_____________ EP211990 15.7349 -111.310 TS 40 1003 0 13 303
1990270N13261 1990 93 EP MM RACHEL 1990-09-30 18:00:00 TS 16.1000 -111.800 40 1002 hurdat_epa main 783 751 O_____________ hurdat_epa EP211990 16.1000 -111.800 TS 40 1002 0 11 312
1990270N13261 1990 93 EP MM RACHEL 1990-09-30 21:00:00 TS 16.4924 -112.175 main 751 716 P_____________ EP211990 16.4924 -112.175 TS 42 1001 0 10 324
1990270N13261 1990 93 EP MM RACHEL 1990-10-01 00:00:00 TS 16.9000 -112.400 45 1001 hurdat_epa main 716 678 O_____________ hurdat_epa EP211990 16.9000 -112.400 TS 45 1001 0 9 339
1990270N13261 1990 93 EP MM RACHEL 1990-10-01 03:00:00 TS 17.2999 -112.495 main 678 637 P_____________ EP211990 17.2999 -112.495 TS 45 1000 0 8 353
1990270N13261 1990 93 EP MM RACHEL 1990-10-01 06:00:00 TS 17.7000 -112.500 45 999 hurdat_epa main 637 596 O_____________ hurdat_epa EP211990 17.7000 -112.500 TS 45 999 0 8 359
1990270N13261 1990 93 EP MM RACHEL 1990-10-01 09:00:00 TS 18.1000 -112.515 main 596 556 P_____________ EP211990 18.1000 -112.515 TS 47 998 0 8 1
1990270N13261 1990 93 EP MM RACHEL 1990-10-01 12:00:00 TS 18.5000 -112.500 50 998 hurdat_epa main 556 517 O_____________ hurdat_epa EP211990 18.5000 -112.500 TS 50 998 0 8 3
1990270N13261 1990 93 EP MM RACHEL 1990-10-01 15:00:00 TS 18.8850 -112.472 main 517 473 P_____________ EP211990 18.8850 -112.472 TS 50 997 0 8 7
1990270N13261 1990 93 EP MM RACHEL 1990-10-01 18:00:00 TS 19.3000 -112.400 50 997 hurdat_epa main 473 429 O_____________ hurdat_epa EP211990 19.3000 -112.400 TS 50 997 0 9 11
1990270N13261 1990 93 EP MM RACHEL 1990-10-01 21:00:00 TS 19.7624 -112.295 main 420 362 P_____________ EP211990 19.7624 -112.295 TS 52 996 0 10 16
1990270N13261 1990 93 EP MM RACHEL 1990-10-02 00:00:00 TS 20.3000 -112.100 55 995 hurdat_epa main 362 290 O_____________ hurdat_epa EP211990 20.3000 -112.100 TS 55 995 0 12 21
1990270N13261 1990 93 EP MM RACHEL 1990-10-02 03:00:00 TS 20.9122 -111.824 main 290 204 P_____________ EP211990 20.9122 -111.824 TS 55 994 0 15 27
1990270N13261 1990 93 EP MM RACHEL 1990-10-02 06:00:00 TS 21.6000 -111.400 55 994 hurdat_epa main 204 106 O_____________ hurdat_epa EP211990 21.6000 -111.400 TS 55 994 0 17 34
1990270N13261 1990 93 EP MM RACHEL 1990-10-02 09:00:00 TS 22.3050 -110.809 main 106 10 P_____________ EP211990 22.3050 -110.809 TS 55 994 0 19 39
1990270N13261 1990 93 EP MM RACHEL 1990-10-02 12:00:00 TS 23.1000 -110.100 55 995 hurdat_epa main 10 0 O_____________ hurdat_epa EP211990 23.1000 -110.100 L TS 55 995 0 22 37
1990270N13261 1990 93 EP MM RACHEL 1990-10-02 15:00:00 TS 24.0461 -109.386 main 37 37 P_____________ EP211990 24.1207 -109.323 TS 52 996 0 24 36
1990270N13261 1990 93 EP MM RACHEL 1990-10-02 18:00:00 TS 25.0000 -108.600 50 997 hurdat_epa main 30 0 O_____________ hurdat_epa EP211990 25.0000 -108.600 TS 50 997 0 24 38
1990270N13261 1990 93 EP MM RACHEL 1990-10-02 19:00:00 TS 25.2949 -108.316 50 998 hurdat_epa main 0 0 O_____________ hurdat_epa EP211990 25.2000 -108.400 L TS 50 998 0 35 42
1990270N13261 1990 93 EP MM RACHEL 1990-10-02 21:00:00 TS 26.3023 -107.305 main 0 0 P_____________ EP211990 26.1492 -107.445 TS 40 1000 0 53 43
1990270N13261 1990 93 EP MM RACHEL 1990-10-03 00:00:00 TS 28.5000 -105.000 25 1004 hurdat_epa main 0 O_____________ hurdat_epa EP211990 28.5000 -105.000 TD 25 1004 -1 60 43

IBTrACS Databaseについて

本データベースは、米国NOAAが公開する1842年以降の世界の熱帯低気圧のベストトラックデータアーカイブInternational Best Track Archive for Climate Stewardship (IBTrACS)を、ウェブで閲覧しやすい形式に変換したものです。

最終更新日:2021-10-19